Hixson, TN (37343)

5:51 AM EST on February 10, 2016 (GMT -0500)
Shannon Hills | | Change Station
CLOSE
Current Station
Personal Weather Station
Location: Middle Valley, TN
Elevation: 774 ft
Nearby Weather Stations
Active Advisory: Winter Weather Advisory Active Notice: Local Storm Report

Elev 774 ft 35.18 °N, 85.22 °W | Updated 26 seconds ago

Overcast
Overcast
21.9 °F
Feels Like 22 °F
N
0.4
Wind Variable Wind from NNE
Gusts 2.5 mph

Today
High -- | Low -- °F
--% Chance of Precip.
Yesterday
High -- | Low -- °F
Precip. -- in
Pressure 30.12 in
Visibility 10.0 miles
Clouds Overcast 4400 ft
Windchill 22 °F
Dew Point 3 °F
Humidity 43%
Rainfall 0.00 in
Snow Depth Not available.
7:32 AM 6:18 PM
Waxing Crescent, 5% visible
METAR KCHA 100953Z AUTO 30008KT 10SM OVC044 M05/M13 A3010 RMK AO2 SLP200 T10501128
Pressure 30.12 in
Visibility 10.0 miles
Clouds Overcast 4400 ft
Windchill 22 °F
Dew Point 3 °F
Humidity 43%
Rainfall 0.00 in
Snow Depth Not available.
7:32 AM 6:18 PM
Waxing Crescent, 5% visible
METAR KCHA 100953Z AUTO 30008KT 10SM OVC044 M05/M13 A3010 RMK AO2 SLP200 T10501128

10-Day Weather Forecast

Almanac

Astronomy

Feb. 10, 2016 Rise Set
Actual Time
Civil Twilight
Nautical Twilight
Astronomical Twilight
Moon
Length of Visible Light
Length of Day
Tomorrow will be .
, % of the Moon is Illuminated

Today's Extremes

State Highs State Lows

Community

WunderPhotos

Upload Photos

1,891,830 photos uploaded!

WunderBlog® & News

Nearby

Air Quality

  Air Quality AQ Index Pollutant
Not available.

Snow Depth

Station Depth Elevation

Earthquake Activity

City Distance Mag. Time & Date
Minimum magnitude displayed is 2.5.

Coastal Water Temperatures

Place Temperature

Stations

Nearby Weather Stations

Station Location Temp. Windchill Dew Point Humidity Wind Precip. Elev Updated Type
                   

Watches & Warnings

Winter Weather Advisory
Issued: 3:55 AM EST Feb. 10, 2016 – National Weather Service

... Winter Weather Advisory remains in effect until 7 am EST this
morning...

* event... scattered snow showers or flurries will slowly end this
morning. Most locations will only see a dusting of additional
snowfall.

* Timing... snow showers or flurries ending this morning.

* Impacts... the snow could cause hazardous driving conditions...
especially on secondary roads.

Precautionary/preparedness actions...

A Winter Weather Advisory for snow means that periods of snow are
expected or occurring... but accumulations are expected to be
light. Driving and walking may be difficult on untreated
roadways and sidewalks. Be prepared for snow covered roads and
limited visibilities. If you must travel... slow down and allow
extra time to reach your destination.